Time,TemperatureF,DewpointF,PressureIn,WindDirection,WindDirectionDegrees,WindSpeedMPH,WindSpeedGustMPH,Humidity,HourlyPrecipIn,Conditions,Clouds,dailyrainin,SoftwareType,DateUTC
2013-02-12 00:00:00,51.3,47.8,29.00,North,0,0.0,0.0,88,0.00,RA,SCT,0.00,WeatherDisplay:10.37,2013-02-12 05:00:00,
2013-02-12 00:05:00,51.1,47.3,29.00,ESE,112,2.3,2.3,87,0.00,RA,SCT,0.00,WeatherDisplay:10.37,2013-02-12 05:05:00,
2013-02-12 00:10:00,51.1,47.3,29.00,SW,225,0.0,0.0,87,0.00,,SCT,0.00,WeatherDisplay:10.37,2013-02-12 05:10:00,
2013-02-12 00:15:00,51.1,47.3,29.00,SE,135,0.0,0.0,87,0.00,,SCT,0.00,WeatherDisplay:10.37,2013-02-12 05:15:00,
2013-02-12 00:20:00,51.1,47.0,29.00,SSW,202,1.4,0.0,86,0.00,,SCT,0.00,WeatherDisplay:10.37,2013-02-12 05:20:00,
2013-02-12 00:25:00,51.1,47.0,29.03,WSW,248,0.0,0.0,86,0.00,,SCT,0.00,WeatherDisplay:10.37,2013-02-12 05:25:00,
2013-02-12 00:30:00,50.9,46.9,29.03,ENE,68,0.0,0.0,86,0.00,,SCT,0.00,WeatherDisplay:10.37,2013-02-12 05:30:00,
2013-02-12 00:35:00,50.7,46.4,29.03,NNE,22,0.0,0.0,85,0.00,,SCT,0.00,WeatherDisplay:10.37,2013-02-12 05:35:00,
2013-02-12 00:40:00,50.5,46.2,29.00,NNE,22,0.0,0.0,85,0.00,,SCT,0.00,WeatherDisplay:10.37,2013-02-12 05:40:00,
2013-02-12 00:45:00,50.5,46.2,29.00,SSE,158,0.0,0.0,85,0.00,,SCT,0.00,WeatherDisplay:10.37,2013-02-12 05:45:00,
2013-02-12 00:50:00,50.7,46.4,29.00,SSE,158,0.0,0.0,85,0.00,,SCT,0.00,WeatherDisplay:10.37,2013-02-12 05:50:00,
2013-02-12 00:55:00,50.5,45.9,28.97,SSE,158,0.0,0.0,84,0.00,,SCT,0.00,WeatherDisplay:10.37,2013-02-12 05:55:00,
2013-02-12 01:00:00,50.4,45.7,28.97,SSE,158,0.0,0.0,84,0.00,,SCT,0.00,WeatherDisplay:10.37,2013-02-12 06:00:00,
2013-02-12 01:05:00,50.4,45.7,28.97,SSE,158,0.0,0.0,84,0.00,,SCT,0.00,WeatherDisplay:10.37,2013-02-12 06:05:00,
2013-02-12 01:10:00,50.2,45.2,29.00,SSE,158,0.0,0.0,83,0.00,,SCT,0.00,WeatherDisplay:10.37,2013-02-12 06:10:00,
2013-02-12 01:15:00,50.2,45.2,29.00,ESE,112,0.0,0.0,83,0.00,,SCT,0.00,WeatherDisplay:10.37,2013-02-12 06:15:00,
2013-02-12 01:20:00,50.0,45.0,29.00,ESE,112,0.0,0.0,83,0.00,,SCT,0.00,WeatherDisplay:10.37,2013-02-12 06:20:00,
2013-02-12 01:25:00,49.8,44.9,28.97,ESE,112,0.0,0.0,83,0.00,,SCT,0.00,WeatherDisplay:10.37,2013-02-12 06:25:00,
2013-02-12 01:30:00,49.6,44.7,28.97,ESE,112,0.0,0.0,83,0.00,,SCT,0.00,WeatherDisplay:10.37,2013-02-12 06:30:00,
2013-02-12 01:35:00,49.6,44.7,28.97,ESE,112,0.0,0.0,83,0.00,,SCT,0.00,WeatherDisplay:10.37,2013-02-12 06:35:00,
2013-02-12 01:40:00,49.5,44.5,28.97,ESE,112,0.0,0.0,83,0.00,,SCT,0.00,WeatherDisplay:10.37,2013-02-12 06:40:00,
2013-02-12 01:45:00,49.3,44.3,28.97,ESE,112,0.0,0.0,83,0.00,,SCT,0.00,WeatherDisplay:10.37,2013-02-12 06:45:00,
2013-02-12 01:50:00,49.3,44.3,28.97,East,90,0.0,0.0,83,0.00,,SCT,0.00,WeatherDisplay:10.37,2013-02-12 06:50:00,
2013-02-12 01:55:00,49.1,44.2,28.97,East,90,0.0,0.0,83,0.00,,SCT,0.00,WeatherDisplay:10.37,2013-02-12 06:55:00,
2013-02-12 02:00:00,48.9,43.7,28.97,East,90,0.0,0.0,82,0.00,,SCT,0.00,WeatherDisplay:10.37,2013-02-12 07:00:00,
2013-02-12 02:05:00,48.9,44.0,28.97,East,90,0.0,0.0,83,0.00,,SCT,0.00,WeatherDisplay:10.37,2013-02-12 07:05:00,
2013-02-12 02:10:00,48.9,44.0,28.97,South,180,0.0,0.0,83,0.00,,SCT,0.00,WeatherDisplay:10.37,2013-02-12 07:10:00,
2013-02-12 02:15:00,49.1,44.2,28.97,South,180,0.0,0.0,83,0.00,,SCT,0.00,WeatherDisplay:10.37,2013-02-12 07:15:00,
2013-02-12 02:20:00,49.1,43.8,28.97,SSW,202,0.0,0.0,82,0.00,,SCT,0.00,WeatherDisplay:10.37,2013-02-12 07:20:00,
2013-02-12 02:25:00,49.1,43.8,29.00,WSW,248,1.1,0.0,82,0.00,,SCT,0.00,WeatherDisplay:10.37,2013-02-12 07:25:00,
2013-02-12 02:30:00,49.1,43.5,29.00,SW,225,0.0,0.0,81,0.00,,SCT,0.00,WeatherDisplay:10.37,2013-02-12 07:30:00,
2013-02-12 02:35:00,48.7,42.8,29.00,SW,225,0.0,0.0,80,0.00,,SCT,0.00,WeatherDisplay:10.37,2013-02-12 07:35:00,
2013-02-12 02:40:00,48.6,42.3,28.97,ENE,68,0.0,0.0,79,0.00,,SCT,0.00,WeatherDisplay:10.37,2013-02-12 07:40:00,
2013-02-12 02:45:00,48.4,41.8,28.97,SE,135,0.0,0.0,78,0.00,,SCT,0.00,WeatherDisplay:10.37,2013-02-12 07:45:00,
2013-02-12 02:50:00,48.4,41.5,28.97,East,90,0.0,0.0,77,0.00,,SCT,0.00,WeatherDisplay:10.37,2013-02-12 07:50:00,
2013-02-12 02:55:00,48.2,41.3,28.97,East,90,0.0,0.0,77,0.00,,SCT,0.00,WeatherDisplay:10.37,2013-02-12 07:55:00,
2013-02-12 03:00:00,48.0,41.5,28.97,East,90,0.0,0.0,78,0.00,,SCT,0.00,WeatherDisplay:10.37,2013-02-12 08:00:00,
2013-02-12 03:05:00,47.8,41.0,28.97,East,90,0.0,0.0,77,0.00,,SCT,0.00,WeatherDisplay:10.37,2013-02-12 08:05:00,
2013-02-12 03:10:00,47.5,40.6,29.00,East,90,0.0,0.0,77,0.00,,SCT,0.00,WeatherDisplay:10.37,2013-02-12 08:10:00,
2013-02-12 03:15:00,47.3,40.1,29.00,East,90,0.0,0.0,76,0.00,,SCT,0.00,WeatherDisplay:10.37,2013-02-12 08:15:00,
2013-02-12 03:20:00,46.9,39.8,29.00,East,90,0.0,0.0,76,0.00,,SCT,0.00,WeatherDisplay:10.37,2013-02-12 08:20:00,
2013-02-12 03:25:00,46.8,39.6,28.97,East,90,0.0,0.0,76,0.00,,SCT,0.00,WeatherDisplay:10.37,2013-02-12 08:25:00,
2013-02-12 03:30:00,46.8,39.6,28.97,East,90,0.0,0.0,76,0.00,,SCT,0.00,WeatherDisplay:10.37,2013-02-12 08:30:00,
2013-02-12 03:35:00,46.8,39.6,28.97,SE,135,0.0,0.0,76,0.00,,SCT,0.00,WeatherDisplay:10.37,2013-02-12 08:35:00,
2013-02-12 03:40:00,46.8,39.9,28.97,SE,135,0.0,0.0,77,0.00,,SCT,0.00,WeatherDisplay:10.37,2013-02-12 08:40:00,
2013-02-12 03:45:00,46.8,39.9,28.97,SE,135,0.0,0.0,77,0.00,,SCT,0.00,WeatherDisplay:10.37,2013-02-12 08:45:00,
2013-02-12 03:50:00,46.9,40.1,28.97,SE,135,0.0,0.0,77,0.00,,SCT,0.00,WeatherDisplay:10.37,2013-02-12 08:50:00,
2013-02-12 03:55:00,46.9,40.1,28.94,ESE,112,0.0,0.0,77,0.00,,SCT,0.00,WeatherDisplay:10.37,2013-02-12 08:55:00,
2013-02-12 04:00:00,46.9,40.1,28.94,ESE,112,0.0,0.0,77,0.00,,SCT,0.00,WeatherDisplay:10.37,2013-02-12 09:00:00,
2013-02-12 04:05:00,46.8,39.9,28.94,ESE,112,0.0,0.0,77,0.00,,SCT,0.00,WeatherDisplay:10.37,2013-02-12 09:05:00,
2013-02-12 04:10:00,46.8,39.9,28.97,ESE,112,0.0,0.0,77,0.00,,SCT,0.00,WeatherDisplay:10.37,2013-02-12 09:10:00,
2013-02-12 04:15:00,46.8,39.6,28.97,ESE,112,0.0,0.0,76,0.00,,SCT,0.00,WeatherDisplay:10.37,2013-02-12 09:15:00,
2013-02-12 04:20:00,46.6,39.4,28.97,ESE,112,0.0,0.0,76,0.00,,SCT,0.00,WeatherDisplay:10.37,2013-02-12 09:20:00,
2013-02-12 04:25:00,46.4,39.2,28.97,ESE,112,0.0,0.0,76,0.00,,SCT,0.00,WeatherDisplay:10.37,2013-02-12 09:25:00,
2013-02-12 04:30:00,46.2,39.1,28.97,East,90,0.0,0.0,76,0.00,,SCT,0.00,WeatherDisplay:10.37,2013-02-12 09:30:00,
2013-02-12 04:35:00,46.2,39.1,28.97,East,90,0.0,0.0,76,0.00,,SCT,0.00,WeatherDisplay:10.37,2013-02-12 09:35:00,
2013-02-12 04:40:00,46.0,38.9,29.00,East,90,0.0,0.0,76,0.00,,SCT,0.00,WeatherDisplay:10.37,2013-02-12 09:40:00,
2013-02-12 04:45:00,45.9,38.7,29.00,East,90,0.0,0.0,76,0.00,,SCT,0.00,WeatherDisplay:10.37,2013-02-12 09:45:00,
2013-02-12 04:50:00,45.5,38.4,29.00,East,90,0.0,0.0,76,0.00,,SCT,0.00,WeatherDisplay:10.37,2013-02-12 09:50:00,
2013-02-12 04:55:00,45.5,38.7,29.00,East,90,0.0,0.0,77,0.00,,SCT,0.00,WeatherDisplay:10.37,2013-02-12 09:55:00,
2013-02-12 05:00:00,45.3,38.5,29.00,East,90,0.0,0.0,77,0.00,,SCT,0.00,WeatherDisplay:10.37,2013-02-12 10:00:00,
2013-02-12 05:05:00,45.3,38.5,29.00,East,90,0.0,0.0,77,0.00,,SCT,0.00,WeatherDisplay:10.37,2013-02-12 10:05:00,
2013-02-12 05:10:00,45.1,38.4,29.00,East,90,0.0,0.0,77,0.00,,SCT,0.00,WeatherDisplay:10.37,2013-02-12 10:10:00,
2013-02-12 05:15:00,45.1,38.4,29.00,East,90,0.0,0.0,77,0.00,,SCT,0.00,WeatherDisplay:10.37,2013-02-12 10:15:00,
2013-02-12 05:20:00,44.8,38.0,29.00,NNE,22,0.0,0.0,77,0.00,,SCT,0.00,WeatherDisplay:10.37,2013-02-12 10:20:00,
2013-02-12 05:25:00,44.8,38.0,29.00,NNE,22,0.0,0.0,77,0.00,,SCT,0.00,WeatherDisplay:10.37,2013-02-12 10:25:00,
2013-02-12 05:30:00,44.6,38.2,29.00,NNE,22,0.0,0.0,78,0.00,,SCT,0.00,WeatherDisplay:10.37,2013-02-12 10:30:00,
2013-02-12 05:35:00,44.6,38.2,29.00,NNE,22,0.0,0.0,78,0.00,,SCT,0.00,WeatherDisplay:10.37,2013-02-12 10:35:00,
2013-02-12 05:40:00,44.6,38.5,29.00,NNE,22,0.0,0.0,79,0.00,,SCT,0.00,WeatherDisplay:10.37,2013-02-12 10:40:00,
2013-02-12 05:45:00,44.2,38.1,29.00,NNE,22,0.0,0.0,79,0.00,,SCT,0.00,WeatherDisplay:10.37,2013-02-12 10:45:00,
2013-02-12 05:50:00,44.2,38.1,29.00,NNE,22,0.0,0.0,79,0.00,,SCT,0.00,WeatherDisplay:10.37,2013-02-12 10:50:00,
2013-02-12 05:55:00,44.1,38.0,29.00,NNE,22,0.0,0.0,79,0.00,,SCT,0.00,WeatherDisplay:10.37,2013-02-12 10:55:00,
2013-02-12 06:00:00,44.1,38.3,29.00,NNE,22,0.0,0.0,80,0.00,,SCT,0.00,WeatherDisplay:10.37,2013-02-12 11:00:00,
2013-02-12 06:05:00,43.9,38.1,29.00,NNE,22,0.0,0.0,80,0.00,,SCT,0.00,WeatherDisplay:10.37,2013-02-12 11:05:00,
2013-02-12 06:10:00,43.7,37.9,28.94,NNE,22,0.0,0.0,80,0.00,,SCT,0.00,WeatherDisplay:10.37,2013-02-12 11:10:00,
2013-02-12 06:15:00,43.7,38.3,28.94,NNE,22,0.0,0.0,81,0.00,,SCT,0.00,WeatherDisplay:10.37,2013-02-12 11:15:00,
2013-02-12 06:20:00,43.7,38.3,28.94,WNW,292,0.0,0.0,81,0.00,,SCT,0.00,WeatherDisplay:10.37,2013-02-12 11:20:00,
2013-02-12 06:25:00,43.7,38.3,29.00,WNW,292,0.0,0.0,81,0.00,,SCT,0.00,WeatherDisplay:10.37,2013-02-12 11:25:00,
2013-02-12 06:30:00,43.5,38.4,29.00,WNW,292,0.0,0.0,82,0.00,,SCT,0.00,WeatherDisplay:10.37,2013-02-12 11:30:00,
2013-02-12 06:35:00,43.5,38.4,29.00,WNW,292,0.0,0.0,82,0.00,,SCT,0.00,WeatherDisplay:10.37,2013-02-12 11:35:00,
2013-02-12 06:40:00,43.5,38.4,29.00,WNW,292,0.0,0.0,82,0.00,,SCT,0.00,WeatherDisplay:10.37,2013-02-12 11:40:00,
2013-02-12 06:45:00,43.5,38.7,29.00,West,270,0.0,0.0,83,0.00,,SCT,0.00,WeatherDisplay:10.37,2013-02-12 11:45:00,
2013-02-12 06:50:00,43.5,38.7,29.00,West,270,0.0,0.0,83,0.00,,SCT,0.00,WeatherDisplay:10.37,2013-02-12 11:50:00,
2013-02-12 06:55:00,43.3,38.5,29.00,ENE,68,0.0,0.0,83,0.00,,SCT,0.00,WeatherDisplay:10.37,2013-02-12 11:55:00,
2013-02-12 07:00:00,43.3,38.5,29.00,ESE,112,0.0,0.0,83,0.00,,SCT,0.00,WeatherDisplay:10.37,2013-02-12 12:00:00,
2013-02-12 07:05:00,43.3,38.5,29.00,ESE,112,0.0,0.0,83,0.00,,SCT,0.00,WeatherDisplay:10.37,2013-02-12 12:05:00,
2013-02-12 07:10:00,43.2,38.3,29.03,WSW,248,0.0,0.0,83,0.00,,SCT,0.00,WeatherDisplay:10.37,2013-02-12 12:10:00,
2013-02-12 07:15:00,43.2,38.3,29.03,WSW,248,0.0,0.0,83,0.00,,SCT,0.00,WeatherDisplay:10.37,2013-02-12 12:15:00,
2013-02-12 07:20:00,43.2,38.3,29.03,WSW,248,0.0,0.0,83,0.00,,SCT,0.00,WeatherDisplay:10.37,2013-02-12 12:20:00,
2013-02-12 07:25:00,43.3,38.8,29.06,WSW,248,0.0,0.0,84,0.00,,SCT,0.00,WeatherDisplay:10.37,2013-02-12 12:25:00,
2013-02-12 07:30:00,43.2,38.7,29.06,WSW,248,0.0,0.0,84,0.00,,SCT,0.00,WeatherDisplay:10.37,2013-02-12 12:30:00,
2013-02-12 07:35:00,43.2,38.7,29.06,East,90,0.0,0.0,84,0.00,,SCT,0.00,WeatherDisplay:10.37,2013-02-12 12:35:00,
2013-02-12 07:40:00,43.2,39.0,29.03,East,90,0.0,0.0,85,0.00,,SCT,0.00,WeatherDisplay:10.37,2013-02-12 12:40:00,
2013-02-12 07:45:00,43.3,39.1,29.03,East,90,0.0,0.0,85,0.00,,SCT,0.00,WeatherDisplay:10.37,2013-02-12 12:45:00,
2013-02-12 07:50:00,43.5,39.6,29.03,East,90,0.0,0.0,86,0.00,,SCT,0.00,WeatherDisplay:10.37,2013-02-12 12:50:00,
2013-02-12 07:55:00,43.5,39.6,29.00,East,90,0.0,0.0,86,0.00,,SCT,0.00,WeatherDisplay:10.37,2013-02-12 12:55:00,
2013-02-12 08:00:00,43.7,39.8,29.00,East,90,0.0,0.0,86,0.00,,SCT,0.00,WeatherDisplay:10.37,2013-02-12 13:00:00,
2013-02-12 08:05:00,43.9,40.0,29.00,East,90,0.0,0.0,86,0.00,,SCT,0.00,WeatherDisplay:10.37,2013-02-12 13:05:00,
2013-02-12 08:10:00,44.1,40.4,29.03,East,90,0.0,0.0,87,0.00,,SCT,0.00,WeatherDisplay:10.37,2013-02-12 13:10:00,
2013-02-12 08:15:00,44.2,40.6,29.03,ENE,68,0.0,0.0,87,0.00,,SCT,0.00,WeatherDisplay:10.37,2013-02-12 13:15:00,
2013-02-12 08:20:00,44.2,40.6,29.03,ENE,68,0.0,0.0,87,0.00,,SCT,0.00,WeatherDisplay:10.37,2013-02-12 13:20:00,
2013-02-12 08:25:00,44.6,41.0,29.03,ENE,68,0.0,0.0,87,0.00,,SCT,0.00,WeatherDisplay:10.37,2013-02-12 13:25:00,
2013-02-12 08:30:00,44.8,41.1,29.03,ENE,68,0.0,0.0,87,0.00,,SCT,0.00,WeatherDisplay:10.37,2013-02-12 13:30:00,
2013-02-12 08:35:00,45.1,41.5,29.03,ENE,68,0.0,0.0,87,0.00,,SCT,0.00,WeatherDisplay:10.37,2013-02-12 13:35:00,
2013-02-12 08:40:00,45.5,42.2,29.03,ENE,68,0.0,0.0,88,0.00,,SCT,0.00,WeatherDisplay:10.37,2013-02-12 13:40:00,
2013-02-12 08:45:00,45.9,42.5,29.03,ENE,68,1.1,1.1,88,0.00,,SCT,0.00,WeatherDisplay:10.37,2013-02-12 13:45:00,
2013-02-12 08:50:00,46.0,42.7,29.03,ENE,68,0.0,0.0,88,0.00,,SCT,0.00,WeatherDisplay:10.37,2013-02-12 13:50:00,
2013-02-12 08:55:00,46.2,42.6,29.03,ENE,68,0.0,0.0,87,0.00,,SCT,0.00,WeatherDisplay:10.37,2013-02-12 13:55:00,
2013-02-12 09:00:00,46.6,42.9,29.03,ENE,68,0.0,0.0,87,0.00,,SCT,0.00,WeatherDisplay:10.37,2013-02-12 14:00:00,
2013-02-12 09:05:00,46.8,43.1,29.03,ENE,68,0.0,0.0,87,0.00,,SCT,0.00,WeatherDisplay:10.37,2013-02-12 14:05:00,
2013-02-12 09:10:00,46.9,43.3,29.03,ENE,68,0.0,0.0,87,0.00,,SCT,0.00,WeatherDisplay:10.37,2013-02-12 14:10:00,
2013-02-12 09:15:00,47.3,43.6,29.03,ENE,68,0.0,0.0,87,0.00,,SCT,0.00,WeatherDisplay:10.37,2013-02-12 14:15:00,
2013-02-12 09:20:00,47.7,44.0,29.03,ENE,68,1.4,1.4,87,0.00,,SCT,0.00,WeatherDisplay:10.37,2013-02-12 14:20:00,
2013-02-12 09:25:00,48.2,44.2,29.03,NE,45,1.1,0.0,86,0.00,,SCT,0.00,WeatherDisplay:10.37,2013-02-12 14:25:00,
2013-02-12 09:30:00,48.7,44.4,29.03,NNE,22,0.0,0.0,85,0.00,,SCT,0.00,WeatherDisplay:10.37,2013-02-12 14:30:00,
2013-02-12 09:35:00,49.3,45.0,29.03,North,0,2.3,2.3,85,0.00,,SCT,0.00,WeatherDisplay:10.37,2013-02-12 14:35:00,
2013-02-12 09:40:00,50.7,46.1,29.03,North,0,1.1,1.1,84,0.00,,SCT,0.00,WeatherDisplay:10.37,2013-02-12 14:40:00,
2013-02-12 09:45:00,51.3,45.0,29.03,North,0,3.5,3.5,79,0.00,,SCT,0.00,WeatherDisplay:10.37,2013-02-12 14:45:00,
2013-02-12 09:50:00,52.5,40.3,29.03,NNE,22,2.3,2.3,63,0.00,,SCT,0.00,WeatherDisplay:10.37,2013-02-12 14:50:00,
2013-02-12 09:55:00,53.2,39.7,29.03,North,0,2.3,2.3,60,0.00,,SCT,0.00,WeatherDisplay:10.37,2013-02-12 14:55:00,
2013-02-12 10:00:00,54.1,32.7,29.03,WNW,292,2.3,2.3,44,0.00,,SCT,0.00,WeatherDisplay:10.37,2013-02-12 15:00:00,
2013-02-12 10:05:00,54.0,30.2,29.03,NW,315,3.5,3.5,40,0.00,,SCT,0.00,WeatherDisplay:10.37,2013-02-12 15:05:00,
2013-02-12 10:10:00,55.0,32.3,29.03,WNW,292,2.3,2.3,42,0.00,,SCT,0.00,WeatherDisplay:10.37,2013-02-12 15:10:00,
2013-02-12 10:15:00,55.9,31.9,29.03,NE,45,2.3,2.3,40,0.00,,SCT,0.00,WeatherDisplay:10.37,2013-02-12 15:15:00,
2013-02-12 10:20:00,56.7,30.7,29.03,North,0,1.1,1.1,37,0.00,,SCT,0.00,WeatherDisplay:10.37,2013-02-12 15:20:00,
2013-02-12 10:25:00,57.2,29.1,29.00,East,90,3.5,3.5,34,0.00,,SCT,0.00,WeatherDisplay:10.37,2013-02-12 15:25:00,
2013-02-12 10:30:00,57.0,28.2,29.00,ENE,68,1.1,1.1,33,0.00,,SCT,0.00,WeatherDisplay:10.37,2013-02-12 15:30:00,
2013-02-12 10:35:00,57.4,29.9,29.00,NNE,22,1.1,1.4,35,0.00,,SCT,0.00,WeatherDisplay:10.37,2013-02-12 15:35:00,
2013-02-12 10:40:00,57.7,26.5,29.03,NNW,338,2.9,2.9,30,0.00,,SCT,0.00,WeatherDisplay:10.37,2013-02-12 15:40:00,
2013-02-12 10:45:00,57.7,25.7,29.03,NNE,22,2.4,2.4,29,0.00,,SCT,0.00,WeatherDisplay:10.37,2013-02-12 15:45:00,
2013-02-12 10:50:00,57.9,25.8,29.03,NNE,22,3.3,3.3,29,0.00,,SCT,0.00,WeatherDisplay:10.37,2013-02-12 15:50:00,
2013-02-12 10:55:00,57.7,23.9,29.03,East,90,2.3,2.4,27,0.00,,SCT,0.00,WeatherDisplay:10.37,2013-02-12 15:55:00,
2013-02-12 11:00:00,57.9,25.0,29.03,ESE,112,2.3,2.3,28,0.00,,SCT,0.00,WeatherDisplay:10.37,2013-02-12 16:00:00,
2013-02-12 11:05:00,58.1,24.3,29.03,NW,315,2.3,2.3,27,0.00,,SCT,0.00,WeatherDisplay:10.37,2013-02-12 16:05:00,
2013-02-12 11:10:00,58.1,23.3,29.03,NNW,338,2.3,2.3,26,0.00,,SCT,0.00,WeatherDisplay:10.37,2013-02-12 16:10:00,
2013-02-12 11:15:00,58.8,24.9,29.03,North,0,2.3,2.3,27,0.00,,SCT,0.00,WeatherDisplay:10.37,2013-02-12 16:15:00,
2013-02-12 11:20:00,59.4,25.3,29.03,NNE,22,2.4,2.4,27,0.00,,SCT,0.00,WeatherDisplay:10.37,2013-02-12 16:20:00,
2013-02-12 11:25:00,59.4,24.4,29.03,NNE,22,2.6,2.6,26,0.00,,SCT,0.00,WeatherDisplay:10.37,2013-02-12 16:25:00,
2013-02-12 11:30:00,59.7,24.7,29.03,NNW,338,3.8,3.8,26,0.00,,SCT,0.00,WeatherDisplay:10.37,2013-02-12 16:30:00,
2013-02-12 11:35:00,59.9,23.9,29.03,NE,45,2.3,2.3,25,0.00,,SCT,0.00,WeatherDisplay:10.37,2013-02-12 16:35:00,
2013-02-12 11:40:00,59.9,23.9,29.03,SE,135,2.3,2.3,25,0.00,,SCT,0.00,WeatherDisplay:10.37,2013-02-12 16:40:00,
2013-02-12 11:45:00,59.9,23.9,29.03,NNW,338,2.4,2.4,25,0.00,,SCT,0.00,WeatherDisplay:10.37,2013-02-12 16:45:00,
2013-02-12 11:50:00,59.7,23.8,29.03,NNW,338,2.4,0.0,25,0.00,,SCT,0.00,WeatherDisplay:10.37,2013-02-12 16:50:00,
2013-02-12 11:55:00,59.9,23.9,29.00,NE,45,2.3,2.3,25,0.00,,SCT,0.00,WeatherDisplay:10.37,2013-02-12 16:55:00,
2013-02-12 12:00:00,60.1,24.1,29.00,ESE,112,2.3,2.3,25,0.00,,SCT,0.00,WeatherDisplay:10.37,2013-02-12 17:00:00,
2013-02-12 12:05:00,60.3,24.3,29.00,NNW,338,2.0,0.0,25,0.00,,SCT,0.00,WeatherDisplay:10.37,2013-02-12 17:05:00,
2013-02-12 12:10:00,60.1,24.1,29.00,NNE,22,1.1,0.0,25,0.00,,SCT,0.00,WeatherDisplay:10.37,2013-02-12 17:10:00,
2013-02-12 12:15:00,60.1,24.1,29.00,NNE,22,2.3,2.3,25,0.00,,SCT,0.00,WeatherDisplay:10.37,2013-02-12 17:15:00,
2013-02-12 12:20:00,59.7,23.8,29.00,NNW,338,2.3,2.3,25,0.00,,SCT,0.00,WeatherDisplay:10.37,2013-02-12 17:20:00,
2013-02-12 12:25:00,59.7,23.8,29.00,ESE,112,0.0,0.0,25,0.00,,SCT,0.00,WeatherDisplay:10.37,2013-02-12 17:25:00,
2013-02-12 12:30:00,60.1,24.1,29.00,East,90,2.3,2.3,25,0.00,,SCT,0.00,WeatherDisplay:10.37,2013-02-12 17:30:00,
2013-02-12 12:35:00,60.1,24.1,29.00,East,90,0.0,0.0,25,0.00,,SCT,0.00,WeatherDisplay:10.37,2013-02-12 17:35:00,
2013-02-12 12:40:00,59.9,23.9,29.00,North,0,3.5,3.5,25,0.00,,SCT,0.00,WeatherDisplay:10.37,2013-02-12 17:40:00,
2013-02-12 12:45:00,60.3,24.3,29.00,ESE,112,1.1,1.1,25,0.00,,SCT,0.00,WeatherDisplay:10.37,2013-02-12 17:45:00,
2013-02-12 12:50:00,60.4,24.4,29.00,ENE,68,1.1,0.0,25,0.00,,SCT,0.00,WeatherDisplay:10.37,2013-02-12 17:50:00,
2013-02-12 12:55:00,60.4,24.4,29.00,North,0,1.1,1.1,25,0.00,,SCT,0.00,WeatherDisplay:10.37,2013-02-12 17:55:00,
2013-02-12 13:00:00,60.6,24.6,29.00,ENE,68,1.1,0.0,25,0.00,,SCT,0.00,WeatherDisplay:10.37,2013-02-12 18:00:00,
2013-02-12 13:05:00,60.8,24.7,29.00,ESE,112,1.4,1.4,25,0.00,,SCT,0.00,WeatherDisplay:10.37,2013-02-12 18:05:00,
2013-02-12 13:10:00,60.8,24.7,29.00,NNE,22,2.3,2.3,25,0.00,,SCT,0.00,WeatherDisplay:10.37,2013-02-12 18:10:00,
2013-02-12 13:15:00,61.0,24.9,29.00,NE,45,2.3,2.3,25,0.00,,SCT,0.00,WeatherDisplay:10.37,2013-02-12 18:15:00,
2013-02-12 13:20:00,60.8,24.7,29.00,NNE,22,1.1,0.0,25,0.00,,SCT,0.00,WeatherDisplay:10.37,2013-02-12 18:20:00,
2013-02-12 13:25:00,61.0,24.9,28.97,NNE,22,1.1,0.0,25,0.00,,SCT,0.00,WeatherDisplay:10.37,2013-02-12 18:25:00,
2013-02-12 13:30:00,60.6,24.6,28.97,NE,45,2.3,2.3,25,0.00,,SCT,0.00,WeatherDisplay:10.37,2013-02-12 18:30:00,
2013-02-12 13:35:00,60.6,24.6,28.97,East,90,2.3,2.3,25,0.00,,SCT,0.00,WeatherDisplay:10.37,2013-02-12 18:35:00,
2013-02-12 13:40:00,60.6,24.6,28.97,NNE,22,0.0,0.0,25,0.00,,SCT,0.00,WeatherDisplay:10.37,2013-02-12 18:40:00,
2013-02-12 13:45:00,60.8,24.7,28.97,NE,45,0.0,0.0,25,0.00,,SCT,0.00,WeatherDisplay:10.37,2013-02-12 18:45:00,
2013-02-12 13:50:00,60.8,24.7,28.97,North,0,2.0,2.0,25,0.00,,SCT,0.00,WeatherDisplay:10.37,2013-02-12 18:50:00,
2013-02-12 13:55:00,60.6,24.6,28.97,East,90,0.0,0.0,25,0.00,,SCT,0.00,WeatherDisplay:10.37,2013-02-12 18:55:00,
2013-02-12 14:00:00,60.6,24.6,28.97,NNE,22,2.3,2.3,25,0.00,,SCT,0.00,WeatherDisplay:10.37,2013-02-12 19:00:00,
2013-02-12 14:05:00,60.6,24.6,28.97,NW,315,0.0,0.0,25,0.00,,SCT,0.00,WeatherDisplay:10.37,2013-02-12 19:05:00,
2013-02-12 14:10:00,60.4,24.4,28.97,WNW,292,1.1,1.1,25,0.00,,SCT,0.00,WeatherDisplay:10.37,2013-02-12 19:10:00,
2013-02-12 14:15:00,60.4,24.4,28.97,West,270,0.0,0.0,25,0.00,,SCT,0.00,WeatherDisplay:10.37,2013-02-12 19:15:00,
2013-02-12 14:20:00,60.4,24.4,28.97,WNW,292,0.0,0.0,25,0.00,,SCT,0.00,WeatherDisplay:10.37,2013-02-12 19:20:00,
2013-02-12 14:25:00,60.3,24.3,28.97,NNW,338,0.0,0.0,25,0.00,,SCT,0.00,WeatherDisplay:10.37,2013-02-12 19:25:00,
2013-02-12 14:30:00,60.3,24.3,28.97,NNW,338,0.0,0.0,25,0.00,,SCT,0.00,WeatherDisplay:10.37,2013-02-12 19:30:00,
2013-02-12 14:35:00,60.1,24.1,28.97,East,90,0.0,0.0,25,0.00,,SCT,0.00,WeatherDisplay:10.37,2013-02-12 19:35:00,
2013-02-12 14:40:00,59.7,23.8,28.97,East,90,0.0,0.0,25,0.00,,SCT,0.00,WeatherDisplay:10.37,2013-02-12 19:40:00,
2013-02-12 14:45:00,59.5,23.6,28.97,East,90,0.0,0.0,25,0.00,,SCT,0.00,WeatherDisplay:10.37,2013-02-12 19:45:00,
2013-02-12 14:50:00,59.4,23.5,28.97,East,90,0.0,0.0,25,0.00,,SCT,0.00,WeatherDisplay:10.37,2013-02-12 19:50:00,
2013-02-12 14:55:00,59.2,23.3,28.94,North,0,0.0,0.0,25,0.00,,SCT,0.00,WeatherDisplay:10.37,2013-02-12 19:55:00,
2013-02-12 15:00:00,59.2,23.3,28.94,North,0,0.0,0.0,25,0.00,,SCT,0.00,WeatherDisplay:10.37,2013-02-12 20:00:00,
2013-02-12 15:05:00,58.8,23.0,28.94,NE,45,0.0,0.0,25,0.00,,SCT,0.00,WeatherDisplay:10.37,2013-02-12 20:05:00,
2013-02-12 15:10:00,58.6,22.9,28.94,ESE,112,0.0,0.0,25,0.00,,SCT,0.00,WeatherDisplay:10.37,2013-02-12 20:10:00,
2013-02-12 15:15:00,58.5,22.7,28.94,East,90,0.0,0.0,25,0.00,,SCT,0.00,WeatherDisplay:10.37,2013-02-12 20:15:00,
2013-02-12 15:20:00,58.3,22.6,28.94,East,90,0.0,0.0,25,0.00,,SCT,0.00,WeatherDisplay:10.37,2013-02-12 20:20:00,
2013-02-12 15:25:00,58.1,22.4,28.97,East,90,0.0,0.0,25,0.00,,SCT,0.00,WeatherDisplay:10.37,2013-02-12 20:25:00,
2013-02-12 15:30:00,58.1,22.4,28.97,East,90,0.0,0.0,25,0.00,,SCT,0.00,WeatherDisplay:10.37,2013-02-12 20:30:00,
2013-02-12 15:35:00,57.9,22.3,28.97,East,90,0.0,0.0,25,0.00,,SCT,0.00,WeatherDisplay:10.37,2013-02-12 20:35:00,
2013-02-12 15:40:00,57.6,22.0,28.97,East,90,0.0,0.0,25,0.00,,SCT,0.00,WeatherDisplay:10.37,2013-02-12 20:40:00,
2013-02-12 15:45:00,57.4,21.8,28.97,East,90,0.0,0.0,25,0.00,,SCT,0.00,WeatherDisplay:10.37,2013-02-12 20:45:00,
2013-02-12 15:50:00,57.4,22.7,28.97,East,90,0.0,0.0,26,0.00,,SCT,0.00,WeatherDisplay:10.37,2013-02-12 20:50:00,
2013-02-12 15:55:00,57.4,22.7,28.97,East,90,0.0,0.0,26,0.00,,SCT,0.00,WeatherDisplay:10.37,2013-02-12 20:55:00,
2013-02-12 16:00:00,57.2,22.6,28.97,East,90,0.0,0.0,26,0.00,,SCT,0.00,WeatherDisplay:10.37,2013-02-12 21:00:00,
2013-02-12 16:05:00,57.0,22.4,28.97,East,90,0.0,0.0,26,0.00,,SCT,0.00,WeatherDisplay:10.37,2013-02-12 21:05:00,
2013-02-12 16:10:00,56.8,22.3,28.97,East,90,0.0,0.0,26,0.00,,SCT,0.00,WeatherDisplay:10.37,2013-02-12 21:10:00,
2013-02-12 16:15:00,56.7,22.1,28.97,East,90,0.0,0.0,26,0.00,,SCT,0.00,WeatherDisplay:10.37,2013-02-12 21:15:00,
2013-02-12 16:20:00,56.3,22.7,28.97,East,90,0.0,0.0,27,0.00,,SCT,0.00,WeatherDisplay:10.37,2013-02-12 21:20:00,
2013-02-12 16:25:00,55.9,22.4,28.97,East,90,0.0,0.0,27,0.00,,SCT,0.00,WeatherDisplay:10.37,2013-02-12 21:25:00,
2013-02-12 16:30:00,55.4,21.9,28.97,East,90,0.0,0.0,27,0.00,,SCT,0.00,WeatherDisplay:10.37,2013-02-12 21:30:00,
2013-02-12 16:35:00,55.2,22.6,28.97,East,90,0.0,0.0,28,0.00,,SCT,0.00,WeatherDisplay:10.37,2013-02-12 21:35:00,
2013-02-12 16:40:00,55.0,24.9,28.94,East,90,0.0,0.0,31,0.00,,SCT,0.00,WeatherDisplay:10.37,2013-02-12 21:40:00,
2013-02-12 16:45:00,54.9,27.7,28.94,East,90,0.0,0.0,35,0.00,,SCT,0.00,WeatherDisplay:10.37,2013-02-12 21:45:00,
2013-02-12 16:50:00,54.7,28.2,28.94,East,90,0.0,0.0,36,0.00,,SCT,0.00,WeatherDisplay:10.37,2013-02-12 21:50:00,
2013-02-12 16:55:00,54.3,27.9,28.88,East,90,0.0,0.0,36,0.00,,SCT,0.00,WeatherDisplay:10.37,2013-02-12 21:55:00,
2013-02-12 17:00:00,53.8,27.4,28.88,East,90,0.0,0.0,36,0.00,,SCT,0.00,WeatherDisplay:10.37,2013-02-12 22:00:00,
2013-02-12 17:05:00,53.4,27.8,28.88,East,90,0.0,0.0,37,0.00,,SCT,0.00,WeatherDisplay:10.37,2013-02-12 22:05:00,
2013-02-12 17:10:00,53.1,27.4,28.88,NNW,338,0.0,0.0,37,0.00,,SCT,0.00,WeatherDisplay:10.37,2013-02-12 22:10:00,
2013-02-12 17:15:00,52.9,28.6,28.88,NNW,338,0.0,0.0,39,0.00,,SCT,0.00,WeatherDisplay:10.37,2013-02-12 22:15:00,
2013-02-12 17:20:00,52.5,28.9,28.88,NNW,338,0.0,0.0,40,0.00,,SCT,0.00,WeatherDisplay:10.37,2013-02-12 22:20:00,
2013-02-12 17:25:00,52.2,30.9,28.91,NNE,22,0.0,0.0,44,0.00,,SCT,0.00,WeatherDisplay:10.37,2013-02-12 22:25:00,
2013-02-12 17:30:00,52.0,30.2,28.91,NNE,22,1.1,1.1,43,0.00,,SCT,0.00,WeatherDisplay:10.37,2013-02-12 22:30:00,
2013-02-12 17:35:00,51.8,30.0,28.91,North,0,0.0,0.0,43,0.00,,SCT,0.00,WeatherDisplay:10.37,2013-02-12 22:35:00,
2013-02-12 17:40:00,51.6,29.3,28.88,North,0,0.0,0.0,42,0.00,,SCT,0.00,WeatherDisplay:10.37,2013-02-12 22:40:00,
2013-02-12 17:45:00,51.6,29.3,28.88,North,0,0.0,0.0,42,0.00,,SCT,0.00,WeatherDisplay:10.37,2013-02-12 22:45:00,
2013-02-12 17:50:00,51.3,28.9,28.88,North,0,0.0,0.0,42,0.00,,SCT,0.00,WeatherDisplay:10.37,2013-02-12 22:50:00,
2013-02-12 17:55:00,51.3,30.6,28.88,North,0,0.0,0.0,45,0.00,,SCT,0.00,WeatherDisplay:10.37,2013-02-12 22:55:00,
2013-02-12 18:00:00,51.1,31.0,28.88,North,0,0.0,0.0,46,0.00,,SCT,0.00,WeatherDisplay:10.37,2013-02-12 23:00:00,
2013-02-12 18:05:00,50.9,29.7,28.88,NE,45,0.0,0.0,44,0.00,,SCT,0.00,WeatherDisplay:10.37,2013-02-12 23:05:00,
2013-02-12 18:10:00,51.1,29.3,28.88,ESE,112,0.0,0.0,43,0.00,,SCT,0.00,WeatherDisplay:10.37,2013-02-12 23:10:00,
2013-02-12 18:15:00,50.9,29.2,28.88,East,90,0.0,0.0,43,0.00,,SCT,0.00,WeatherDisplay:10.37,2013-02-12 23:15:00,
2013-02-12 18:20:00,50.9,29.7,28.88,East,90,0.0,0.0,44,0.00,,SCT,0.00,WeatherDisplay:10.37,2013-02-12 23:20:00,
2013-02-12 18:25:00,50.9,29.7,28.88,East,90,0.0,0.0,44,0.00,,SCT,0.00,WeatherDisplay:10.37,2013-02-12 23:25:00,
2013-02-12 18:30:00,50.7,29.0,28.88,East,90,0.0,0.0,43,0.00,,SCT,0.00,WeatherDisplay:10.37,2013-02-12 23:30:00,
2013-02-12 18:35:00,50.7,29.0,28.88,East,90,0.0,0.0,43,0.00,,SCT,0.00,WeatherDisplay:10.37,2013-02-12 23:35:00,
2013-02-12 18:40:00,50.5,29.4,28.91,SE,135,1.1,1.1,44,0.00,,SCT,0.00,WeatherDisplay:10.37,2013-02-12 23:40:00,
2013-02-12 18:45:00,50.4,29.8,28.91,SE,135,1.1,0.0,45,0.00,,SCT,0.00,WeatherDisplay:10.37,2013-02-12 23:45:00,
2013-02-12 18:50:00,50.4,30.3,28.91,SE,135,0.0,0.0,46,0.00,,SCT,0.00,WeatherDisplay:10.37,2013-02-12 23:50:00,
2013-02-12 18:55:00,50.2,30.2,28.91,SE,135,0.0,0.0,46,0.00,,SCT,0.00,WeatherDisplay:10.37,2013-02-12 23:55:00,
2013-02-12 19:00:00,49.8,30.9,28.91,SE,135,0.0,0.0,48,0.00,,SCT,0.00,WeatherDisplay:10.37,2013-02-13 00:00:00,
2013-02-12 19:05:00,49.5,31.6,28.91,SE,135,0.0,0.0,50,0.00,,SCT,0.00,WeatherDisplay:10.37,2013-02-13 00:05:00,
2013-02-12 19:10:00,49.3,31.4,28.91,NNE,22,0.0,0.0,50,0.00,,SCT,0.00,WeatherDisplay:10.37,2013-02-13 00:10:00,
2013-02-12 19:15:00,49.1,33.2,28.91,NE,45,0.0,0.0,54,0.00,,SCT,0.00,WeatherDisplay:10.37,2013-02-13 00:15:00,
2013-02-12 19:20:00,48.7,32.8,28.91,NE,45,0.0,0.0,54,0.00,,SCT,0.00,WeatherDisplay:10.37,2013-02-13 00:20:00,
2013-02-12 19:25:00,48.6,34.0,28.91,ENE,68,0.0,0.0,57,0.00,,SCT,0.00,WeatherDisplay:10.37,2013-02-13 00:25:00,
2013-02-12 19:30:00,48.4,33.4,28.91,ENE,68,0.0,0.0,56,0.00,,SCT,0.00,WeatherDisplay:10.37,2013-02-13 00:30:00,
2013-02-12 19:35:00,48.4,33.4,28.91,ENE,68,0.0,0.0,56,0.00,,SCT,0.00,WeatherDisplay:10.37,2013-02-13 00:35:00,
2013-02-12 19:40:00,48.0,33.5,28.91,ENE,68,0.0,0.0,57,0.00,,SCT,0.00,WeatherDisplay:10.37,2013-02-13 00:40:00,
2013-02-12 19:45:00,48.0,33.5,28.91,SE,135,1.1,1.1,57,0.00,,SCT,0.00,WeatherDisplay:10.37,2013-02-13 00:45:00,
2013-02-12 19:50:00,48.0,34.4,28.91,SE,135,0.0,0.0,59,0.00,,SCT,0.00,WeatherDisplay:10.37,2013-02-13 00:50:00,
2013-02-12 19:55:00,48.0,34.8,28.97,East,90,2.3,2.3,60,0.00,,SCT,0.00,WeatherDisplay:10.37,2013-02-13 00:55:00,
2013-02-12 20:00:00,48.0,34.8,28.97,SSE,158,1.1,1.1,60,0.00,,SCT,0.00,WeatherDisplay:10.37,2013-02-13 01:00:00,
2013-02-12 20:05:00,47.7,35.7,28.97,ENE,68,0.0,0.0,63,0.04,RA,SCT,0.04,WeatherDisplay:10.37,2013-02-13 01:05:00,
2013-02-12 20:10:00,47.7,36.1,28.91,SE,135,0.0,0.0,64,0.04,RA,SCT,0.04,WeatherDisplay:10.37,2013-02-13 01:10:00,
2013-02-12 20:15:00,47.7,36.5,28.91,SE,135,0.0,0.0,65,0.04,,SCT,0.04,WeatherDisplay:10.37,2013-02-13 01:15:00,
2013-02-12 20:20:00,47.7,37.2,28.91,North,0,1.1,0.0,67,0.04,,SCT,0.04,WeatherDisplay:10.37,2013-02-13 01:20:00,
2013-02-12 20:25:00,47.7,37.2,28.91,North,0,0.0,0.0,67,0.04,,SCT,0.04,WeatherDisplay:10.37,2013-02-13 01:25:00,
2013-02-12 20:30:00,47.5,37.1,28.91,North,0,0.0,0.0,67,0.04,,SCT,0.04,WeatherDisplay:10.37,2013-02-13 01:30:00,
2013-02-12 20:35:00,47.5,37.1,28.91,NNE,22,0.0,0.0,67,0.04,,SCT,0.04,WeatherDisplay:10.37,2013-02-13 01:35:00,
2013-02-12 20:40:00,47.5,37.4,28.91,NNE,22,0.0,0.0,68,0.04,,SCT,0.04,WeatherDisplay:10.37,2013-02-13 01:40:00,
2013-02-12 20:45:00,47.5,37.4,28.91,NNE,22,0.0,0.0,68,0.04,,SCT,0.04,WeatherDisplay:10.37,2013-02-13 01:45:00,
2013-02-12 20:50:00,47.5,37.8,28.91,NNE,22,0.0,0.0,69,0.04,,SCT,0.04,WeatherDisplay:10.37,2013-02-13 01:50:00,
2013-02-12 20:55:00,47.5,38.2,28.91,ESE,112,0.0,0.0,70,0.04,,SCT,0.04,WeatherDisplay:10.37,2013-02-13 01:55:00,
2013-02-12 21:00:00,47.3,38.0,28.91,ESE,112,0.0,0.0,70,0.04,,SCT,0.04,WeatherDisplay:10.37,2013-02-13 02:00:00,
2013-02-12 21:05:00,47.3,37.6,28.91,East,90,0.0,0.0,69,0.00,,SCT,0.04,WeatherDisplay:10.37,2013-02-13 02:05:00,
2013-02-12 21:10:00,47.1,37.1,28.91,NNW,338,0.0,0.0,68,0.00,,SCT,0.04,WeatherDisplay:10.37,2013-02-13 02:10:00,
2013-02-12 21:15:00,47.1,37.1,28.91,SW,225,2.3,2.3,68,0.00,,SCT,0.04,WeatherDisplay:10.37,2013-02-13 02:15:00,
2013-02-12 21:20:00,47.1,37.8,28.91,West,270,1.6,0.0,70,0.00,,SCT,0.04,WeatherDisplay:10.37,2013-02-13 02:20:00,
2013-02-12 21:25:00,47.3,39.1,28.91,NNW,338,2.3,2.3,73,0.00,,SCT,0.04,WeatherDisplay:10.37,2013-02-13 02:25:00,
2013-02-12 21:30:00,47.1,38.9,28.91,West,270,0.0,0.0,73,0.00,,SCT,0.04,WeatherDisplay:10.37,2013-02-13 02:30:00,
2013-02-12 21:35:00,46.9,38.7,28.91,NNE,22,1.1,1.1,73,0.00,,SCT,0.04,WeatherDisplay:10.37,2013-02-13 02:35:00,
2013-02-12 21:40:00,46.9,38.7,28.91,East,90,0.0,0.0,73,0.00,,SCT,0.04,WeatherDisplay:10.37,2013-02-13 02:40:00,
2013-02-12 21:45:00,46.9,38.4,28.91,NW,315,0.0,0.0,72,0.00,,SCT,0.04,WeatherDisplay:10.37,2013-02-13 02:45:00,
2013-02-12 21:50:00,46.8,38.2,28.91,NE,45,1.4,0.0,72,0.00,,SCT,0.04,WeatherDisplay:10.37,2013-02-13 02:50:00,
2013-02-12 21:55:00,46.8,38.6,28.91,South,180,1.1,1.1,73,0.00,,SCT,0.04,WeatherDisplay:10.37,2013-02-13 02:55:00,
2013-02-12 22:00:00,46.8,38.6,28.91,South,180,1.1,1.1,73,0.00,,SCT,0.04,WeatherDisplay:10.37,2013-02-13 03:00:00,
2013-02-12 22:05:00,46.8,38.6,28.91,North,0,2.3,2.3,73,0.00,,SCT,0.04,WeatherDisplay:10.37,2013-02-13 03:05:00,
2013-02-12 22:10:00,46.6,39.1,28.91,West,270,2.3,2.3,75,0.00,,SCT,0.04,WeatherDisplay:10.37,2013-02-13 03:10:00,
2013-02-12 22:15:00,46.6,39.1,28.91,NW,315,1.6,1.6,75,0.00,,SCT,0.04,WeatherDisplay:10.37,2013-02-13 03:15:00,
2013-02-12 22:20:00,46.4,38.9,28.91,WSW,248,0.0,0.0,75,0.00,,SCT,0.04,WeatherDisplay:10.37,2013-02-13 03:20:00,
2013-02-12 22:25:00,46.4,38.9,28.91,East,90,1.6,1.6,75,0.00,,SCT,0.04,WeatherDisplay:10.37,2013-02-13 03:25:00,
2013-02-12 22:30:00,46.6,38.7,28.91,NNW,338,2.4,2.4,74,0.05,RA,SCT,0.09,WeatherDisplay:10.37,2013-02-13 03:30:00,
2013-02-12 22:35:00,46.2,38.7,28.91,WNW,292,2.3,0.0,75,0.05,RA,SCT,0.09,WeatherDisplay:10.37,2013-02-13 03:35:00,
2013-02-12 22:40:00,46.2,38.7,28.91,NNW,338,1.1,0.0,75,0.05,,SCT,0.09,WeatherDisplay:10.37,2013-02-13 03:40:00,
2013-02-12 22:45:00,46.2,38.7,28.91,NNE,22,1.4,0.0,75,0.05,,SCT,0.09,WeatherDisplay:10.37,2013-02-13 03:45:00,
2013-02-12 22:50:00,46.0,38.6,28.91,SE,135,0.0,0.0,75,0.05,,SCT,0.09,WeatherDisplay:10.37,2013-02-13 03:50:00,
2013-02-12 22:55:00,46.0,38.6,28.91,North,0,0.0,0.0,75,0.05,,SCT,0.09,WeatherDisplay:10.37,2013-02-13 03:55:00,
2013-02-12 23:00:00,46.0,38.6,28.91,NNW,338,1.4,1.4,75,0.05,,SCT,0.09,WeatherDisplay:10.37,2013-02-13 04:00:00,
2013-02-12 23:05:00,45.9,38.4,28.91,NNE,22,2.3,2.3,75,0.05,,SCT,0.09,WeatherDisplay:10.37,2013-02-13 04:05:00,
2013-02-12 23:10:00,45.7,38.2,28.91,SSE,158,1.1,1.1,75,0.09,RA,SCT,0.14,WeatherDisplay:10.37,2013-02-13 04:10:00,
2013-02-12 23:15:00,45.5,38.0,28.91,SSE,158,0.0,0.0,75,0.09,RA,SCT,0.14,WeatherDisplay:10.37,2013-02-13 04:15:00,
2013-02-12 23:20:00,45.5,38.0,28.91,West,270,1.1,1.1,75,0.09,,SCT,0.14,WeatherDisplay:10.37,2013-02-13 04:20:00,
2013-02-12 23:25:00,45.5,38.0,28.88,ESE,112,0.0,0.0,75,0.09,,SCT,0.14,WeatherDisplay:10.37,2013-02-13 04:25:00,
2013-02-12 23:30:00,45.5,38.0,28.88,NNE,22,1.4,1.4,75,0.04,,SCT,0.14,WeatherDisplay:10.37,2013-02-13 04:30:00,
2013-02-12 23:35:00,45.5,38.0,28.88,NNE,22,0.0,0.0,75,0.04,,SCT,0.14,WeatherDisplay:10.37,2013-02-13 04:35:00,
2013-02-12 23:40:00,45.3,37.9,28.85,North,0,0.9,0.0,75,0.04,,SCT,0.14,WeatherDisplay:10.37,2013-02-13 04:40:00,
2013-02-12 23:45:00,45.3,37.9,28.85,NE,45,1.1,1.1,75,0.04,,SCT,0.14,WeatherDisplay:10.37,2013-02-13 04:45:00,
2013-02-12 23:50:00,45.3,37.9,28.85,North,0,1.1,1.1,75,0.04,,SCT,0.14,WeatherDisplay:10.37,2013-02-13 04:50:00,
2013-02-12 23:55:00,45.1,37.7,28.85,NNE,22,2.3,2.3,75,0.04,,SCT,0.14,WeatherDisplay:10.37,2013-02-13 04:55:00,